createdAt,value
2018-06-15T00:00:47.908Z,81.43
2018-06-15T00:01:57.994Z,81.24
2018-06-15T00:03:08.138Z,80.86
2018-06-15T00:04:17.961Z,81.15
2018-06-15T00:05:27.801Z,81.15
2018-06-15T00:06:37.885Z,80.96
2018-06-15T00:07:47.952Z,80.96
2018-06-15T00:08:59.137Z,80.99
2018-06-15T00:10:08.946Z,81.24
2018-06-15T00:11:19.003Z,81.24
2018-06-15T00:12:29.063Z,81.48
2018-06-15T00:13:39.139Z,81.09
2018-06-15T00:14:49.203Z,80.9
2018-06-15T00:15:59.301Z,81.19
2018-06-15T00:17:09.380Z,81.19
2018-06-15T00:18:18.930Z,80.86
2018-06-15T00:19:29.026Z,80.99
2018-06-15T00:20:39.097Z,80.9
2018-06-15T00:21:49.170Z,81.19
2018-06-15T00:22:59.226Z,81.63
2018-06-15T00:24:09.349Z,81.43
2018-06-15T00:25:19.157Z,81.19
2018-06-15T00:26:29.236Z,80.99
2018-06-15T00:27:39.342Z,81.19
2018-06-15T00:28:49.405Z,81.48
2018-06-15T00:29:59.497Z,81.28
2018-06-15T00:31:09.586Z,81.38
2018-06-15T00:32:19.457Z,81.19
2018-06-15T00:33:29.524Z,81.67
2018-06-15T00:34:39.330Z,81.28
2018-06-15T00:35:49.403Z,81.57
2018-06-15T00:36:59.471Z,81.19
2018-06-15T00:38:09.585Z,81.76
2018-06-15T00:39:19.661Z,82.05
2018-06-15T00:40:29.745Z,81.67
2018-06-15T00:41:39.817Z,81.28
2018-06-15T00:42:49.904Z,81.67
2018-06-15T00:43:59.765Z,81.53
2018-06-15T00:45:09.823Z,81.57
2018-06-15T00:46:19.627Z,81.57
2018-06-15T00:47:29.440Z,81.72
2018-06-15T00:48:38.726Z,81.53
2018-06-15T00:49:48.787Z,81.63
2018-06-15T00:50:58.598Z,81.86
2018-06-15T00:52:08.387Z,81.72
2018-06-15T00:53:18.478Z,81.72
2018-06-15T00:54:28.544Z,81.53
2018-06-15T00:55:38.619Z,81.72
2018-06-15T00:56:48.418Z,81.72
2018-06-15T00:57:58.498Z,81.53
2018-06-15T00:59:08.559Z,81.72
2018-06-15T01:00:18.629Z,81.67
2018-06-15T01:01:28.710Z,81.72
2018-06-15T01:02:38.784Z,81.76
2018-06-15T01:03:48.855Z,81.76
2018-06-15T01:04:58.931Z,81.19
2018-06-15T01:06:09.007Z,81.72
2018-06-15T01:07:19.129Z,81.82
2018-06-15T01:08:29.235Z,81.86
2018-06-15T01:09:39.314Z,81.86
2018-06-15T01:10:49.400Z,81.76
2018-06-15T01:11:59.497Z,81.57
2018-06-15T01:13:09.568Z,81.63
2018-06-15T01:14:19.643Z,81.82
2018-06-15T01:15:29.452Z,81.63
2018-06-15T01:16:39.247Z,81.82
2018-06-15T01:17:49.315Z,81.72
2018-06-15T01:18:59.398Z,82.05
2018-06-15T01:20:09.208Z,82.01
2018-06-15T01:21:19.047Z,82.01
2018-06-15T01:22:28.870Z,81.92
2018-06-15T01:23:38.946Z,81.92
2018-06-15T01:24:48.805Z,82.1
2018-06-15T01:25:58.897Z,82.1
2018-06-15T01:27:08.452Z,81.72
2018-06-15T01:28:18.528Z,81.53
2018-06-15T01:29:28.333Z,81.15
2018-06-15T01:30:38.394Z,81.53
2018-06-15T01:31:48.446Z,81.53
2018-06-15T01:32:58.264Z,81.72
2018-06-15T01:34:08.343Z,81.53
2018-06-15T01:35:18.408Z,81.82
2018-06-15T01:36:28.472Z,82.01
2018-06-15T01:37:38.277Z,81.82
2018-06-15T01:38:48.365Z,81.92
2018-06-15T01:39:58.179Z,82.1
2018-06-15T01:41:07.993Z,81.82
2018-06-15T01:42:18.065Z,82.01
2018-06-15T01:43:28.133Z,81.82
2018-06-15T01:44:38.202Z,81.92
2018-06-15T01:45:48.266Z,81.72
2018-06-15T01:46:58.354Z,82.1
2018-06-15T01:48:08.420Z,82.01
2018-06-15T01:49:18.235Z,82.1
2018-06-15T01:50:28.049Z,81.72
2018-06-15T01:51:38.126Z,81.82
2018-06-15T01:52:47.663Z,81.82
2018-06-15T01:53:57.735Z,81.15
2018-06-15T01:55:07.801Z,81.63
2018-06-15T01:56:17.354Z,82.01
2018-06-15T01:57:27.433Z,82.01
2018-06-15T01:58:37.514Z,81.72
2018-06-15T01:59:47.584Z,81.72
2018-06-15T02:00:57.653Z,82.01
2018-06-15T02:02:07.326Z,82.1
2018-06-15T02:03:17.382Z,82.1
2018-06-15T02:04:27.186Z,81.72
2018-06-15T02:05:37.250Z,82.01
2018-06-15T02:06:47.335Z,81.92
2018-06-15T02:07:57.408Z,81.72
2018-06-15T02:09:07.468Z,82.01
2018-06-15T02:10:17.534Z,82.01
2018-06-15T02:11:27.694Z,81.72
2018-06-15T02:12:37.503Z,81.72
2018-06-15T02:13:47.563Z,82.1
2018-06-15T02:14:57.661Z,81.72
2018-06-15T02:16:07.749Z,81.82
2018-06-15T02:17:17.813Z,81.82
2018-06-15T02:18:27.881Z,81.82
2018-06-15T02:19:37.681Z,81.63
2018-06-15T02:20:47.742Z,81.92
2018-06-15T02:21:57.545Z,81.72
2018-06-15T02:23:07.624Z,81.53
2018-06-15T02:24:17.693Z,81.63
2018-06-15T02:25:27.749Z,81.82
2018-06-15T02:26:37.826Z,81.82
2018-06-15T02:27:47.379Z,81.72
2018-06-15T02:28:57.174Z,82.1
2018-06-15T02:30:06.980Z,82.1
2018-06-15T02:31:17.019Z,81.72
2018-06-15T02:32:27.113Z,81.82
2018-06-15T02:33:36.922Z,81.63
2018-06-15T02:34:46.994Z,81.72
2018-06-15T02:35:56.793Z,82.01
2018-06-15T02:37:06.906Z,82.1
2018-06-15T02:38:16.989Z,81.72
2018-06-15T02:39:27.104Z,81.82
2018-06-15T02:40:37.177Z,81.63
2018-06-15T02:41:46.979Z,81.15
2018-06-15T02:42:56.793Z,81.82
2018-06-15T02:44:06.882Z,81.82
2018-06-15T02:45:16.958Z,81.53
2018-06-15T02:46:26.864Z,81.72
2018-06-15T02:47:36.952Z,81.82
2018-06-15T02:48:47.035Z,81.72
2018-06-15T02:49:56.873Z,81.72
2018-06-15T02:51:06.953Z,81.82
2018-06-15T02:52:17.019Z,81.63
2018-06-15T02:53:27.102Z,81.82
2018-06-15T02:54:37.183Z,81.86
2018-06-15T02:55:46.992Z,81.63
2018-06-15T02:56:57.064Z,81.72
2018-06-15T02:58:06.868Z,81.53
2018-06-15T02:59:16.961Z,81.82
2018-06-15T03:00:27.051Z,81.72
2018-06-15T03:01:37.202Z,81.82
2018-06-15T03:02:47.306Z,81.72
2018-06-15T03:34:28.672Z,75.65
2018-06-15T03:35:38.729Z,76.23
2018-06-15T03:36:48.786Z,76.81
2018-06-15T03:37:58.861Z,77.86
2018-06-15T03:39:08.919Z,78.25
2018-06-15T03:40:18.993Z,78.82
2018-06-15T03:41:29.057Z,79.14
2018-06-15T03:42:39.125Z,78.57
2018-06-15T03:43:49.191Z,79.82
2018-06-15T03:44:59.276Z,79.53
2018-06-15T03:46:09.397Z,79.67
2018-06-15T03:47:19.473Z,79.86
2018-06-15T03:48:29.533Z,80.24
2018-06-15T03:49:39.344Z,79.96
2018-06-15T03:50:49.433Z,80.53
2018-06-15T03:51:59.494Z,80.47
2018-06-15T03:53:09.324Z,80.96
2018-06-15T03:54:19.127Z,80.47
2018-06-15T03:55:29.189Z,80.66
2018-06-15T03:56:39.273Z,80.57
2018-06-15T03:57:49.078Z,81.05
2018-06-15T03:58:59.250Z,81.15
2018-06-15T04:00:09.320Z,80.9
2018-06-15T04:01:19.388Z,81.19
2018-06-15T04:02:29.204Z,80.99
2018-06-15T04:03:39.348Z,81.28
2018-06-15T04:04:49.407Z,81.28
2018-06-15T04:05:59.221Z,81.09
2018-06-15T04:07:09.312Z,80.99
2018-06-15T04:08:19.399Z,80.99
2018-06-15T04:09:29.522Z,80.99
2018-06-15T04:10:39.335Z,81.19
2018-06-15T04:11:49.400Z,80.99
2018-06-15T04:12:59.263Z,81.09
2018-06-15T04:14:09.637Z,80.9
2018-06-15T04:15:19.711Z,81.09
2018-06-15T04:16:29.273Z,81.04
2018-06-15T04:17:39.356Z,81.04
2018-06-15T04:18:49.421Z,81.23
2018-06-15T04:19:59.505Z,81.23
2018-06-15T04:21:09.590Z,81.23
2018-06-15T04:22:19.676Z,80.94
2018-06-15T04:23:29.731Z,81.04
2018-06-15T04:24:39.795Z,81.04
2018-06-15T04:25:49.853Z,81.23
2018-06-15T04:26:59.937Z,81.23
2018-06-15T04:28:10.015Z,81.23
2018-06-15T04:29:20.084Z,81.04
2018-06-15T04:30:30.152Z,81.13
2018-06-15T04:31:40.227Z,81.23
2018-06-15T04:32:50.298Z,80.94
2018-06-15T04:34:00.418Z,81.32
2018-06-15T04:35:10.248Z,81.23
2018-06-15T04:36:20.056Z,81.13
2018-06-15T04:37:30.135Z,80.94
2018-06-15T04:38:39.673Z,81.23
2018-06-15T04:39:49.744Z,81.04
2018-06-15T04:40:59.817Z,80.65
2018-06-15T04:42:09.639Z,80.75
2018-06-15T04:43:19.725Z,80.75
2018-06-15T04:44:29.787Z,80.84
2018-06-15T04:45:39.611Z,80.55
2018-06-15T04:46:49.673Z,80.75
2018-06-15T04:47:59.747Z,80.79
2018-06-15T04:49:09.861Z,80.6
2018-06-15T04:50:19.676Z,80.79
2018-06-15T04:51:29.748Z,80.79
2018-06-15T04:52:39.559Z,80.79
2018-06-15T04:53:49.650Z,80.79
2018-06-15T04:54:59.727Z,80.79
2018-06-15T04:56:09.527Z,80.79
2018-06-15T04:57:19.716Z,80.79
2018-06-15T04:58:29.548Z,80.79
2018-06-15T04:59:39.619Z,80.88
2018-06-15T05:00:49.481Z,80.5
2018-06-15T05:01:59.289Z,80.79
2018-06-15T05:03:09.377Z,80.5
2018-06-15T05:04:19.687Z,81.17
2018-06-15T05:05:29.509Z,80.69
2018-06-15T05:06:39.601Z,80.98
2018-06-15T05:07:49.669Z,80.88
2018-06-15T05:08:59.473Z,80.79
2018-06-15T05:10:09.297Z,80.79
2018-06-15T05:11:19.114Z,80.79
2018-06-15T05:12:29.244Z,80.79
2018-06-15T05:13:39.046Z,80.69
2018-06-15T05:14:48.861Z,80.79
2018-06-15T05:15:58.675Z,80.4
2018-06-15T05:17:08.495Z,80.88
2018-06-15T05:18:18.694Z,80.6
2018-06-15T05:19:28.767Z,80.4
2018-06-15T05:20:38.861Z,79.82
2018-06-15T05:21:48.938Z,79.86
2018-06-15T05:22:59.002Z,79.86
2018-06-15T05:24:09.139Z,79.67
2018-06-15T05:25:18.965Z,79.43
2018-06-15T05:26:29.042Z,78.85
2018-06-15T05:27:39.105Z,78.5
2018-06-15T05:28:49.196Z,78.83
2018-06-15T05:29:59.273Z,77.58
2018-06-15T05:31:09.347Z,75.7
2018-06-15T05:32:19.399Z,75.51
2018-06-15T05:33:29.463Z,73.52
2018-06-15T05:34:39.270Z,71.89
2018-06-15T05:35:49.335Z,72.31
2018-06-15T05:36:59.419Z,74.12
2018-06-15T05:38:09.497Z,74.08
2018-06-15T05:39:19.582Z,75.11
2018-06-15T05:40:29.396Z,76.24
2018-06-15T05:41:39.476Z,76.91
2018-06-15T05:42:49.572Z,77.94
2018-06-15T05:43:59.396Z,77.75
2018-06-15T05:45:09.213Z,78.29
2018-06-15T05:46:19.303Z,78.67
2018-06-15T05:47:29.376Z,78.92
2018-06-15T05:48:39.461Z,79.41
2018-06-15T05:49:49.013Z,79.47
2018-06-15T05:50:59.296Z,79.56
2018-06-15T05:52:09.382Z,79.66
2018-06-15T05:53:19.455Z,79.43
2018-06-15T05:54:29.271Z,79.52
2018-06-15T05:55:39.394Z,80.06
2018-06-15T05:56:49.699Z,80.45
2018-06-15T05:57:59.511Z,80.26
2018-06-15T05:59:09.574Z,79.93
2018-06-15T06:00:19.661Z,79.93
2018-06-15T06:01:29.719Z,80.02
2018-06-15T06:02:39.821Z,80.22
2018-06-15T06:03:49.904Z,80.02
2018-06-15T06:05:00.417Z,80.66
2018-06-15T06:06:10.498Z,80.46
2018-06-15T06:07:20.556Z,80.56
2018-06-15T06:08:30.650Z,81.04
2018-06-15T06:09:40.730Z,80.91
2018-06-15T06:10:50.802Z,80.62
2018-06-15T06:12:00.883Z,80.71
2018-06-15T06:13:10.683Z,80.52
2018-06-15T06:14:20.761Z,80.71
2018-06-15T06:15:30.836Z,80.71
2018-06-15T06:16:40.707Z,80.52
2018-06-15T06:17:50.791Z,80.68
2018-06-15T06:19:00.853Z,80.68
2018-06-15T06:20:11.067Z,80.48
2018-06-15T06:21:20.888Z,80.38
2018-06-15T06:22:30.708Z,80.58
2018-06-15T06:23:40.806Z,80.77
2018-06-15T06:24:50.882Z,80.96
2018-06-15T06:26:00.705Z,80.68
2018-06-15T06:27:10.530Z,80.48
2018-06-15T06:28:20.607Z,80.68
2018-06-15T06:29:30.670Z,80.77
2018-06-15T06:30:40.751Z,80.87
2018-06-15T06:31:50.822Z,80.58
2018-06-15T06:33:00.892Z,80.48
2018-06-15T06:34:10.965Z,80.48
2018-06-15T06:35:21.055Z,80.68
2018-06-15T06:36:31.177Z,80.58
2018-06-15T06:37:41.002Z,80.58
2018-06-15T06:38:50.812Z,80.58
2018-06-15T06:40:00.887Z,80.68
2018-06-15T06:41:10.705Z,80.58
2018-06-15T06:42:20.819Z,80.58
2018-06-15T06:43:30.885Z,80.58
2018-06-15T06:44:40.727Z,80.68
2018-06-15T06:45:50.807Z,80.48
2018-06-15T06:47:00.884Z,80.68
2018-06-15T06:48:10.730Z,80.48
2018-06-15T06:49:20.797Z,80.48
2018-06-15T06:50:30.690Z,80.48
2018-06-15T06:51:40.950Z,80.48
2018-06-15T06:52:51.025Z,80.48
2018-06-15T06:54:01.103Z,80.58
2018-06-15T06:55:10.911Z,80.58
2018-06-15T06:56:20.739Z,80.1
2018-06-15T06:57:30.571Z,80.77
2018-06-15T06:58:40.639Z,80.19
2018-06-15T06:59:50.715Z,80.38
2018-06-15T07:01:00.516Z,80.19
2018-06-15T07:02:10.347Z,80.1
2018-06-15T07:03:20.423Z,79.9
2018-06-15T07:04:30.245Z,79.9
2018-06-15T07:05:40.313Z,79.9
2018-06-15T07:06:50.385Z,79.9
2018-06-15T07:08:00.206Z,80
2018-06-15T07:09:10.013Z,79.94
2018-06-15T07:10:20.084Z,80.04
2018-06-15T07:11:29.900Z,80.04
2018-06-15T07:12:39.969Z,80.14
2018-06-15T07:13:49.785Z,79.85
2018-06-15T07:14:59.852Z,80.04
2018-06-15T07:16:10.118Z,79.94
2018-06-15T07:17:20.465Z,79.85
2018-06-15T07:18:30.542Z,79.94
2018-06-15T07:19:40.608Z,79.94
2018-06-15T07:20:50.686Z,80.04
2018-06-15T07:22:00.754Z,80.14
2018-06-15T07:23:10.574Z,80.33
2018-06-15T07:24:20.644Z,80.04
2018-06-15T07:25:30.728Z,80.23
2018-06-15T07:26:40.804Z,80.14
2018-06-15T07:27:50.915Z,80.43
2018-06-15T07:29:00.977Z,79.94
2018-06-15T07:30:10.798Z,80.62
2018-06-15T07:31:20.872Z,80.71
2018-06-15T07:32:30.707Z,80.52
2018-06-15T07:33:40.528Z,80.52
2018-06-15T07:34:50.630Z,80.81
2018-06-15T07:36:00.740Z,80.71
2018-06-15T07:37:10.829Z,80.62
2018-06-15T07:38:20.960Z,80.52
2018-06-15T07:39:31.027Z,80.91
2018-06-15T07:40:40.888Z,80.62
2018-06-15T07:41:50.718Z,80.91
2018-06-15T07:43:00.803Z,80.52
2018-06-15T07:44:10.609Z,80.71
2018-06-15T07:45:20.692Z,80.71
2018-06-15T07:46:30.820Z,80.81
2018-06-15T07:47:40.387Z,80.33
2018-06-15T07:48:50.469Z,80.43
2018-06-15T07:50:00.288Z,80.71
2018-06-15T07:51:10.360Z,81.01
2018-06-15T07:52:20.162Z,81.01
2018-06-15T07:53:30.138Z,80.52
2018-06-15T07:54:40.199Z,80.71
2018-06-15T07:55:50.272Z,80.71
2018-06-15T07:57:00.353Z,80.81
2018-06-15T07:58:10.501Z,80.56
2018-06-15T07:59:20.618Z,80.71
2018-06-15T08:00:30.595Z,80.76
2018-06-15T08:01:40.404Z,80.66
2018-06-15T08:02:50.477Z,80.66
2018-06-15T08:04:00.553Z,80.76
2018-06-15T08:05:10.627Z,80.66
2018-06-15T08:06:20.688Z,80.46
2018-06-15T08:07:30.764Z,80.46
2018-06-15T08:08:40.070Z,80.46
2018-06-15T08:09:50.187Z,80.66
2018-06-15T08:11:00.077Z,80.66
2018-06-15T08:12:09.902Z,80.66
2018-06-15T08:13:19.732Z,80.76
2018-06-15T08:14:30.050Z,80.6
2018-06-15T08:15:40.706Z,80.08
2018-06-15T08:16:50.815Z,80.6
2018-06-15T08:18:01.245Z,80.51
2018-06-15T08:19:11.700Z,80.89
2018-06-15T08:20:22.373Z,80.69
2018-06-15T08:21:32.504Z,80.51
2018-06-15T08:22:42.610Z,80.6
2018-06-15T08:23:52.712Z,80.69
2018-06-15T08:25:02.562Z,80.6
2018-06-15T08:26:12.388Z,80.99
2018-06-15T08:27:22.520Z,80.6
2018-06-15T08:28:32.365Z,80.6
2018-06-15T08:29:42.189Z,80.6
2018-06-15T08:30:52.023Z,80.79
2018-06-15T08:32:02.086Z,80.69
2018-06-15T08:33:12.208Z,80.6
2018-06-15T08:34:22.036Z,80.6
2018-06-15T08:35:32.111Z,80.83
2018-06-15T08:36:42.007Z,80.69
2018-06-15T08:37:52.103Z,80.74
2018-06-15T08:39:02.182Z,81.02
2018-06-15T08:40:12.277Z,80.45
2018-06-15T08:41:22.371Z,80.26
2018-06-15T08:42:42.435Z,79.97
2018-06-15T08:43:52.548Z,80.26
2018-06-15T08:45:02.635Z,80.16
2018-06-15T08:46:12.736Z,80.1
2018-06-15T08:47:22.844Z,80.1
2018-06-15T08:48:32.947Z,79.81
2018-06-15T08:49:43.053Z,79.91
2018-06-15T08:50:53.135Z,79.75
2018-06-15T08:52:02.975Z,79.37
2018-06-15T08:53:13.123Z,79.37
2018-06-15T08:54:23.205Z,79.47
2018-06-15T08:55:33.302Z,79.56
2018-06-15T08:56:43.127Z,79.47
2018-06-15T08:57:53.237Z,79.47
2018-06-15T08:59:04.469Z,79.66
2018-06-15T09:00:14.570Z,79.31
2018-06-15T09:01:24.653Z,79.31
2018-06-15T09:02:34.741Z,79.7
2018-06-15T09:03:44.854Z,79.6
2018-06-15T09:04:54.685Z,79.5
2018-06-15T09:06:04.818Z,79.7
2018-06-15T09:07:14.904Z,79.41
2018-06-15T09:08:24.717Z,79.35
2018-06-15T09:09:34.554Z,78.96
2018-06-15T09:10:44.684Z,78.61
2018-06-15T09:11:54.792Z,78.42
2018-06-15T09:13:04.624Z,78.46
2018-06-15T09:14:14.707Z,78.17
2018-06-15T09:15:24.513Z,77.57
2018-06-15T09:16:34.394Z,77.47
2018-06-15T09:17:44.212Z,77.28
2018-06-15T09:18:54.275Z,76.83
2018-06-15T09:20:04.088Z,77.06
2018-06-15T09:21:14.182Z,76.78
2018-06-15T09:22:24.322Z,76.32
2018-06-15T09:23:34.414Z,76.07
2018-06-15T09:24:44.225Z,75.24
2018-06-15T09:25:54.315Z,74.79
2018-06-15T09:27:04.127Z,74.73
2018-06-15T09:28:14.219Z,74.18
2018-06-15T09:29:24.041Z,74.51
2018-06-15T09:30:34.137Z,74.06
2018-06-15T09:31:43.948Z,73.61
2018-06-15T09:32:54.058Z,73.51
2018-06-15T09:34:04.188Z,73.55
2018-06-15T09:35:14.511Z,73.49
2018-06-15T09:36:24.430Z,73.33
2018-06-15T09:37:34.535Z,72.97
2018-06-15T09:38:44.387Z,73.27
2018-06-15T09:39:54.474Z,73.5
2018-06-15T09:41:04.600Z,73.3
2018-06-15T09:42:14.716Z,73.21
2018-06-15T09:43:24.805Z,73.63
2018-06-15T09:44:34.885Z,73.54
2018-06-15T09:45:44.966Z,73.34
2018-06-15T09:46:55.047Z,73.18
2018-06-15T09:48:05.151Z,73.96
2018-06-15T09:49:15.270Z,73.86
2018-06-15T09:50:25.392Z,74.25
2018-06-15T09:51:35.009Z,73.9
2018-06-15T09:52:45.083Z,74.05
2018-06-15T09:53:55.345Z,74.35
2018-06-15T09:55:05.544Z,74.35
2018-06-15T09:56:15.361Z,74.64
2018-06-15T09:57:25.445Z,74.54
2018-06-15T09:58:35.574Z,74.93
2018-06-15T09:59:45.427Z,75.1
2018-06-15T10:00:55.011Z,75.2
2018-06-15T10:02:05.097Z,75.54
2018-06-15T10:03:14.920Z,75.93
2018-06-15T10:04:24.764Z,75.64
2018-06-15T10:05:34.856Z,75.84
2018-06-15T10:06:44.959Z,75.84
2018-06-15T10:07:55.052Z,76.78
2018-06-15T10:09:05.137Z,76.58
2018-06-15T10:10:14.968Z,76.54
2018-06-15T10:11:24.785Z,76.7
2018-06-15T10:12:34.870Z,77
2018-06-15T10:13:44.972Z,76.9
2018-06-15T10:14:55.068Z,77.39
2018-06-15T10:16:05.177Z,77.19
2018-06-15T10:17:15.258Z,76.67
2018-06-15T10:18:25.363Z,77.44
2018-06-15T10:19:35.450Z,77.06
2018-06-15T10:20:45.537Z,77.4
2018-06-15T10:21:55.644Z,77.11
2018-06-15T10:23:05.453Z,76.82
2018-06-15T10:24:15.602Z,76.57
2018-06-15T10:25:25.698Z,76.67
2018-06-15T10:26:35.521Z,76.57
2018-06-15T10:27:45.659Z,76.47
2018-06-15T10:28:55.558Z,76.51
2018-06-15T10:30:05.676Z,76.31
2018-06-15T10:31:15.774Z,76.41
2018-06-15T10:32:25.888Z,76.31
2018-06-15T10:33:35.467Z,76.41
2018-06-15T10:34:45.589Z,76.12
2018-06-15T10:35:55.722Z,76.61
2018-06-15T10:37:05.726Z,76.7
2018-06-15T10:38:16.029Z,76.61
2018-06-15T10:39:26.402Z,75.63
2018-06-15T10:40:36.943Z,75.31
2018-06-15T10:41:47.136Z,74.96
2018-06-15T10:42:56.701Z,74.51
2018-06-15T10:44:06.524Z,74.8
2018-06-15T10:45:16.350Z,75.29
2018-06-15T10:46:26.433Z,75.25
2018-06-15T10:47:36.307Z,75
2018-06-15T10:48:46.132Z,74.71
2018-06-15T10:49:55.947Z,75.23
2018-06-15T10:51:06.034Z,74.84
2018-06-15T10:52:15.852Z,74.84
2018-06-15T10:53:25.940Z,75.29
2018-06-15T10:54:36.020Z,75.1
2018-06-15T10:55:46.099Z,74.77
2018-06-15T10:56:56.184Z,73.99
2018-06-15T10:58:06.018Z,74.87
2018-06-15T10:59:16.119Z,74.29
2018-06-15T11:00:26.208Z,74.91
2018-06-15T11:01:35.760Z,74.32
2018-06-15T11:02:45.861Z,74.91
2018-06-15T11:03:55.977Z,75.17
2018-06-15T11:05:06.058Z,74.87
2018-06-15T11:06:16.140Z,75.04
2018-06-15T11:07:26.228Z,74.93
2018-06-15T11:08:36.365Z,74.64
2018-06-15T11:09:46.562Z,74.64
2018-06-15T11:10:56.401Z,75.23
2018-06-15T11:12:06.233Z,75.29
2018-06-15T11:13:16.356Z,75.29
2018-06-15T11:14:26.492Z,75.2
2018-06-15T11:15:36.860Z,75.98
2018-06-15T11:16:46.742Z,75.45
2018-06-15T11:17:56.587Z,75.74
2018-06-15T11:19:06.689Z,75.64
2018-06-15T11:20:16.846Z,75.9
2018-06-15T11:21:26.950Z,75.7
2018-06-15T11:22:37.046Z,75.7
2018-06-15T11:23:46.884Z,75.6
2018-06-15T11:24:56.955Z,75.6
2018-06-15T11:26:06.784Z,75.6
2018-06-15T11:27:16.579Z,75.51
2018-06-15T11:28:26.690Z,75.8
2018-06-15T11:29:36.995Z,75.8
2018-06-15T11:30:47.089Z,75.51
2018-06-15T11:31:56.989Z,75.21
2018-06-15T11:33:06.821Z,74.48
2018-06-15T11:34:16.903Z,74.32
2018-06-15T11:35:27.023Z,73.86
2018-06-15T11:36:37.145Z,73.96
2018-06-15T11:37:47.257Z,74.15
2018-06-15T11:38:57.080Z,74.09
2018-06-15T11:40:07.167Z,74.09
2018-06-15T11:41:17.217Z,74.09
2018-06-15T11:42:28.014Z,73.9
2018-06-15T11:43:38.115Z,73.93
2018-06-15T11:44:48.238Z,73.83
2018-06-15T11:45:58.075Z,73.28
2018-06-15T11:47:08.180Z,73.58
2018-06-15T11:48:18.293Z,73.48
2018-06-15T11:49:28.373Z,73.28
2018-06-15T11:50:38.462Z,73.38
2018-06-15T11:51:48.276Z,74.1
2018-06-15T11:52:58.372Z,73.52
2018-06-15T11:54:08.456Z,73.61
2018-06-15T11:55:18.563Z,73.71
2018-06-15T11:56:28.665Z,73.81
2018-06-15T11:57:38.751Z,73.97
2018-06-15T11:58:48.593Z,74.36
2018-06-15T11:59:58.713Z,74.65
2018-06-15T12:01:08.823Z,74.81
2018-06-15T12:02:18.951Z,74.52
2018-06-15T12:03:29.108Z,75.27
2018-06-15T12:04:39.223Z,75.85
2018-06-15T12:05:49.370Z,75.68
2018-06-15T12:06:59.510Z,76.52
2018-06-15T12:08:09.373Z,76.87
2018-06-15T12:09:19.482Z,77.17
2018-06-15T12:10:29.569Z,76.84
2018-06-15T12:11:39.642Z,77.29
2018-06-15T12:12:49.719Z,77.09
2018-06-15T12:13:59.808Z,77.44
2018-06-15T12:15:09.920Z,77.54
2018-06-15T12:16:19.740Z,77.5
2018-06-15T12:17:29.837Z,77.7
2018-06-15T12:18:39.928Z,77.5
2018-06-15T12:19:49.757Z,77.6
2018-06-15T12:20:59.892Z,77.4
2018-06-15T12:22:10.017Z,77.47
2018-06-15T12:23:19.581Z,77.7
2018-06-15T12:24:29.668Z,77.17
2018-06-15T12:25:39.480Z,76.92
2018-06-15T12:26:49.556Z,76.53
2018-06-15T12:27:59.616Z,76.92
2018-06-15T12:29:09.700Z,76.43
2018-06-15T12:30:19.791Z,76.18
2018-06-15T12:31:29.886Z,75.59
2018-06-15T12:32:40.137Z,75.49
2018-06-15T12:33:50.396Z,75.82
2018-06-15T12:35:00.223Z,75.82
2018-06-15T12:36:10.301Z,75.63
2018-06-15T12:37:20.118Z,75.63
2018-06-15T12:38:29.945Z,75.82
2018-06-15T12:39:40.022Z,75.63
2018-06-15T12:40:50.100Z,75.53
2018-06-15T12:42:00.182Z,75.92
2018-06-15T12:43:10.277Z,76.51
2018-06-15T12:44:20.347Z,76.61
2018-06-15T12:45:30.647Z,76.51
2018-06-15T12:46:40.790Z,76.47
2018-06-15T12:47:50.878Z,76.61
2018-06-15T12:49:00.969Z,76.57
2018-06-15T12:50:10.810Z,76.37
2018-06-15T12:51:20.664Z,76.21
2018-06-15T12:52:30.443Z,75.82
2018-06-15T12:53:40.272Z,75.82
2018-06-15T12:54:49.627Z,75.73
2018-06-15T12:55:59.444Z,75.37
2018-06-15T12:57:09.357Z,75.27
2018-06-15T12:58:18.992Z,75.31
2018-06-15T12:59:29.103Z,75.21
2018-06-15T13:00:38.672Z,75.31
2018-06-15T13:01:48.763Z,75.02
2018-06-15T13:02:58.308Z,75.51
2018-06-15T13:04:08.133Z,75.8
2018-06-15T13:05:17.973Z,75.51
2018-06-15T13:06:28.049Z,75.6
2018-06-15T13:07:38.219Z,75.6
2018-06-15T13:08:47.794Z,75.51
2018-06-15T13:09:57.880Z,75.51
2018-06-15T13:11:07.981Z,75.41
2018-06-15T13:12:17.806Z,75.9
2018-06-15T13:13:27.962Z,75.8
2018-06-15T13:14:37.528Z,75.7
2018-06-15T13:15:47.609Z,75.41
2018-06-15T13:16:57.430Z,75.31
2018-06-15T13:18:07.514Z,75.15
2018-06-15T13:19:17.085Z,75.1
2018-06-15T13:20:27.172Z,74.9
2018-06-15T13:21:37.277Z,74.22
2018-06-15T13:22:47.094Z,74.35
2018-06-15T13:23:56.652Z,74.64
2018-06-15T13:25:05.936Z,74.64
2018-06-15T13:26:15.762Z,74.84
2018-06-15T13:27:25.874Z,74.84
2018-06-15T13:28:35.431Z,75.07
2018-06-15T13:29:45.040Z,74.29
2018-06-15T13:30:54.916Z,74.29
2018-06-15T13:32:04.471Z,74.42
2018-06-15T13:33:14.566Z,73.97
2018-06-15T13:34:24.410Z,74.16
2018-06-15T13:35:34.246Z,73.77
2018-06-15T13:36:44.135Z,74.3
2018-06-15T13:37:53.968Z,74.2
2018-06-15T13:39:04.095Z,74.01
2018-06-15T13:40:14.191Z,74.4
2018-06-15T13:41:24.311Z,74.59
2018-06-15T13:42:34.191Z,74.59
2018-06-15T13:43:43.746Z,74.69
2018-06-15T13:44:53.579Z,74.49
2018-06-15T13:46:03.665Z,74.3
2018-06-15T13:47:13.517Z,75.08
2018-06-15T13:48:23.403Z,75.08
2018-06-15T13:49:33.496Z,75.18
2018-06-15T13:50:42.541Z,74.3
2018-06-15T13:51:52.644Z,74.59
2018-06-15T13:53:02.739Z,74.63
2018-06-15T13:54:12.316Z,74.63
2018-06-15T13:55:22.404Z,74.24
2018-06-15T13:56:32.504Z,74.63
2018-06-15T13:57:42.634Z,74.53
2018-06-15T13:58:52.462Z,74.3
2018-06-15T14:00:02.333Z,74.69
2018-06-15T14:01:11.884Z,75.15
2018-06-15T14:02:22.392Z,74.95
2018-06-15T14:03:31.954Z,74.75
2018-06-15T14:04:41.488Z,75.01
2018-06-15T14:05:51.372Z,75.01
2018-06-15T14:07:00.948Z,74.95
2018-06-15T14:08:11.091Z,75.24
2018-06-15T14:09:21.180Z,74.95
2018-06-15T14:10:31.021Z,74.75
2018-06-15T14:11:41.157Z,74.2
2018-06-15T14:12:51.311Z,74.33
2018-06-15T14:14:01.242Z,74.24
2018-06-15T14:15:11.306Z,73.88
2018-06-15T14:16:21.142Z,73.98
2018-06-15T14:17:31.326Z,73.69
2018-06-15T14:18:40.361Z,74.18
2018-06-15T14:19:50.464Z,74.57
2018-06-15T14:21:00.580Z,74.27
2018-06-15T14:22:10.406Z,74.73
2018-06-15T14:23:20.230Z,74.18
2018-06-15T14:24:30.327Z,74.18
2018-06-15T14:25:39.881Z,73.72
2018-06-15T14:26:49.722Z,73.92
2018-06-15T14:27:59.809Z,74.8
2018-06-15T14:29:09.780Z,74.9
2018-06-15T14:30:19.316Z,75.26
2018-06-15T14:31:28.666Z,74.82
2018-06-15T14:32:38.501Z,75.61
2018-06-15T14:33:48.357Z,74.82
2018-06-15T14:34:58.467Z,74.82
2018-06-15T14:36:08.304Z,75.61
2018-06-15T14:37:18.421Z,75.18
2018-06-15T14:38:28.276Z,75.48
2018-06-15T14:39:38.605Z,75.48
2018-06-15T14:40:48.760Z,75.57
2018-06-15T14:41:58.592Z,75.67
2018-06-15T14:43:08.690Z,75.57
2018-06-15T14:44:18.791Z,75.38
2018-06-15T14:45:28.653Z,75.08
2018-06-15T14:46:38.223Z,74.88
2018-06-15T14:47:47.885Z,75.08
2018-06-15T14:48:57.714Z,75.22
2018-06-15T14:50:07.270Z,75.28
2018-06-15T14:51:17.173Z,75.18
2018-06-15T14:52:27.263Z,74.88
2018-06-15T14:53:37.082Z,74.79
2018-06-15T14:54:46.907Z,74.43
2018-06-15T14:55:56.993Z,74.88
2018-06-15T14:57:07.101Z,74.69
2018-06-15T14:58:17.178Z,75.18
2018-06-15T14:59:27.094Z,75.44
2018-06-15T15:00:37.011Z,75.83
2018-06-15T15:01:46.845Z,75.73
2018-06-15T15:02:56.418Z,75.73
2018-06-15T15:04:06.524Z,75.83
2018-06-15T15:05:16.605Z,75.89
2018-06-15T15:06:26.750Z,75.83
2018-06-15T15:07:36.596Z,76.12
2018-06-15T15:08:46.418Z,75.99
2018-06-15T15:09:56.303Z,76.64
2018-06-15T15:11:06.654Z,76.83
2018-06-15T15:12:16.486Z,76.79
2018-06-15T15:13:25.801Z,76.89
2018-06-15T15:14:35.346Z,77.19
2018-06-15T15:15:45.223Z,76.76
2018-06-15T15:16:55.070Z,77.05
2018-06-15T15:18:05.188Z,77.05
2018-06-15T15:19:15.153Z,76.76
2018-06-15T15:20:25.254Z,76.66
2018-06-15T15:21:35.088Z,76.56
2018-06-15T15:22:44.913Z,75.68
2018-06-15T15:23:54.282Z,75.56
2018-06-15T15:25:04.128Z,75.85
2018-06-15T15:26:14.207Z,75.56
2018-06-15T15:27:23.785Z,75.95
2018-06-15T15:28:33.897Z,75.72
2018-06-15T15:29:43.751Z,76.79
2018-06-15T15:30:53.596Z,75.82
2018-06-15T15:32:03.419Z,76.79
2018-06-15T15:33:12.720Z,76.6
2018-06-15T15:34:22.804Z,77.09
2018-06-15T15:35:32.368Z,77.25